Time;durP1;ratioP1;P1;durP2;ratioP2;P2;SDS_P1;SDS_P2;PMS_P1;PMS_P2;Temp;Humidity;BMP_temperature;BMP_pressure;BME280_temperature;BME280_humidity;BME280_pressure;Samples;Min_cycle;Max_cycle;Signal;HPM_P1;HPM_P2
2022/03/01 00:01:35;;;;;;;14.00;8.77;;;-2.30;99.90;-3.60;102416;;;;562114;251;24238;-83
2022/03/01 00:04:00;;;;;;;16.13;9.50;;;-2.30;99.90;-3.60;102415;;;;561650;251;24155;-85
2022/03/01 00:06:31;;;;;;;16.73;10.33;;;-2.40;99.90;-3.70;102418;;;;561763;251;24180;-80
2022/03/01 00:08:59;;;;;;;14.17;8.80;;;-2.40;99.90;-3.70;102418;;;;561714;251;24102;-83
2022/03/01 00:11:27;;;;;;;14.83;9.53;;;-2.40;99.90;-3.70;102414;;;;561327;251;24133;-83
2022/03/01 00:13:55;;;;;;;18.87;9.17;;;-2.50;99.90;-3.70;102412;;;;561464;251;24127;-83
2022/03/01 00:16:23;;;;;;;18.40;9.27;;;-2.50;99.90;-3.70;102408;;;;561483;251;24129;-80
2022/03/01 00:18:51;;;;;;;11.40;8.63;;;-2.50;99.90;-3.70;102402;;;;561380;251;24156;-82
2022/03/01 00:21:19;;;;;;;21.70;9.77;;;-2.50;99.90;-3.70;102404;;;;565223;251;24185;-80
2022/03/01 00:23:46;;;;;;;13.47;9.03;;;-2.50;99.90;-3.70;102403;;;;565126;251;24117;-80
2022/03/01 00:26:14;;;;;;;12.33;8.83;;;-2.50;99.90;-3.70;102399;;;;561359;251;24150;-81
2022/03/01 00:28:42;;;;;;;15.17;7.87;;;-2.40;99.90;-3.70;102396;;;;561195;251;24120;-81
2022/03/01 00:31:10;;;;;;;16.83;9.43;;;-2.50;99.90;-3.70;102395;;;;559453;251;24133;-79
2022/03/01 00:33:39;;;;;;;14.87;8.80;;;-2.50;99.90;-3.70;102403;;;;559449;251;24183;-81
2022/03/01 00:36:10;;;;;;;12.43;7.40;;;-2.40;99.90;-3.70;102391;;;;561722;251;24184;-81
2022/03/01 00:38:35;;;;;;;14.53;8.90;;;-2.50;99.90;-3.70;102391;;;;559539;251;24138;-81
2022/03/01 00:41:06;;;;;;;12.97;8.60;;;-2.50;99.90;-3.70;102377;;;;559900;251;24123;-81
2022/03/01 00:43:34;;;;;;;13.00;8.10;;;-2.50;99.90;-3.80;102391;;;;559938;251;24155;-83
2022/03/01 00:46:04;;;;;;;14.80;9.23;;;-2.60;99.90;-3.80;102382;;;;570879;250;24134;-83
2022/03/01 00:48:30;;;;;;;16.23;8.60;;;-2.60;99.90;-3.90;102386;;;;560619;251;24165;-84
2022/03/01 00:50:58;;;;;;;13.53;8.37;;;-2.60;99.90;-3.90;102390;;;;562158;251;24241;-83
2022/03/01 00:53:27;;;;;;;13.30;9.07;;;-2.70;99.90;-3.90;102385;;;;560411;251;24127;-84
2022/03/01 00:55:55;;;;;;;13.97;8.53;;;-2.70;99.90;-4.00;102394;;;;560275;251;24140;-84
2022/03/01 00:58:23;;;;;;;12.57;7.93;;;-2.70;99.90;-4.00;102383;;;;561819;251;24142;-85
2022/03/01 01:00:51;;;;;;;13.40;8.30;;;-2.80;99.90;-4.10;102385;;;;561779;251;24148;-79
2022/03/01 01:03:20;;;;;;;13.27;7.90;;;-2.90;99.90;-4.20;102385;;;;561278;251;24165;-82
2022/03/01 01:05:48;;;;;;;10.27;7.40;;;-2.90;99.90;-4.20;102386;;;;561377;251;24136;-82
2022/03/01 01:08:19;;;;;;;11.57;7.60;;;-2.90;99.90;-4.30;102395;;;;561299;251;24107;-82
2022/03/01 01:10:44;;;;;;;10.37;7.60;;;-3.00;99.90;-4.30;102392;;;;561131;251;24151;-83
2022/03/01 01:13:12;;;;;;;11.30;7.30;;;-3.00;99.90;-4.40;102378;;;;559819;251;24127;-80
2022/03/01 01:15:43;;;;;;;13.53;8.20;;;-3.00;99.90;-4.40;102381;;;;561240;251;24172;-80
2022/03/01 01:18:12;;;;;;;11.27;7.73;;;-3.10;99.90;-4.40;102384;;;;559439;251;24126;-80
2022/03/01 01:20:39;;;;;;;14.10;7.63;;;-3.10;99.90;-4.50;102378;;;;561244;251;24128;-80
2022/03/01 01:23:07;;;;;;;13.37;8.33;;;-3.20;99.90;-4.50;102384;;;;559255;251;24309;-81
2022/03/01 01:25:32;;;;;;;11.33;8.20;;;-3.20;99.90;-4.50;102376;;;;561020;251;24151;-82
2022/03/01 01:28:04;;;;;;;13.23;7.43;;;-3.20;99.90;-4.50;102382;;;;558678;251;24120;-84
2022/03/01 01:30:28;;;;;;;16.57;8.50;;;-3.20;99.90;-4.50;102381;;;;559399;251;24176;-82
2022/03/01 01:32:59;;;;;;;15.77;7.80;;;-3.20;99.90;-4.60;102384;;;;560991;251;24119;-82
2022/03/01 01:35:27;;;;;;;14.60;8.53;;;-3.20;99.90;-4.60;102381;;;;561230;251;24168;-83
2022/03/01 01:37:52;;;;;;;18.80;8.83;;;-3.20;99.90;-4.60;102388;;;;559603;251;24159;-84
2022/03/01 01:40:20;;;;;;;16.53;9.57;;;-3.30;99.90;-4.60;102384;;;;561513;251;24125;-81
2022/03/01 01:42:51;;;;;;;15.80;9.07;;;-3.30;99.90;-4.70;102378;;;;559338;251;24181;-83
2022/03/01 01:45:19;;;;;;;15.67;10.13;;;-3.30;99.90;-4.70;102381;;;;560919;251;24099;-80
2022/03/01 01:47:47;;;;;;;18.50;10.27;;;-3.40;99.90;-4.80;102385;;;;559382;251;24124;-81
2022/03/01 01:50:11;;;;;;;18.40;10.33;;;-3.40;99.90;-4.80;102377;;;;559234;251;24150;-81
2022/03/01 01:52:42;;;;;;;16.20;10.13;;;-3.40;99.90;-4.80;102381;;;;565090;251;25168;-81
2022/03/01 01:55:08;;;;;;;17.33;10.17;;;-3.40;99.90;-4.80;102371;;;;561203;251;24118;-81
2022/03/01 01:57:38;;;;;;;16.70;10.13;;;-3.50;99.90;-4.80;102372;;;;562438;251;25195;-81
2022/03/01 02:00:03;;;;;;;15.10;9.17;;;-3.50;99.90;-4.80;102378;;;;570426;251;24152;-81
2022/03/01 02:02:35;;;;;;;15.47;9.90;;;-3.40;99.90;-4.80;102385;;;;559556;251;24187;-82
2022/03/01 02:05:02;;;;;;;14.80;8.83;;;-3.50;99.90;-4.80;102377;;;;562261;251;24164;-81
2022/03/01 02:07:32;;;;;;;16.07;9.73;;;-3.50;99.90;-4.80;102373;;;;560287;251;24119;-81
2022/03/01 02:09:56;;;;;;;15.23;9.13;;;-3.50;99.90;-4.80;102370;;;;561530;251;25238;-79
2022/03/01 02:12:24;;;;;;;14.13;9.63;;;-3.50;99.90;-4.80;102367;;;;561706;251;24112;-80
2022/03/01 02:14:52;;;;;;;15.53;9.70;;;-3.50;99.90;-4.80;102370;;;;561475;251;24144;-83
2022/03/01 02:17:20;;;;;;;20.87;9.93;;;-3.50;99.90;-4.80;102373;;;;561697;251;24165;-84
2022/03/01 02:19:51;;;;;;;15.80;8.73;;;-3.50;99.90;-4.80;102366;;;;559970;251;24154;-80
2022/03/01 02:22:21;;;;;;;14.33;8.93;;;-3.40;99.90;-4.80;102365;;;;561327;251;24125;-82
2022/03/01 02:24:49;;;;;;;17.43;8.60;;;-3.50;99.90;-4.80;102363;;;;565474;251;24116;-82
2022/03/01 02:27:17;;;;;;;12.13;7.97;;;-3.40;99.90;-4.70;102366;;;;561239;251;24111;-81
2022/03/01 02:29:45;;;;;;;15.43;8.77;;;-3.40;99.90;-4.70;102366;;;;561371;251;24138;-81
2022/03/01 02:32:13;;;;;;;13.87;8.00;;;-3.40;99.90;-4.70;102365;;;;565207;251;25311;-81
2022/03/01 02:34:41;;;;;;;13.07;8.00;;;-3.30;99.90;-4.70;102359;;;;561178;251;24148;-81
2022/03/01 02:37:09;;;;;;;12.10;8.83;;;-3.30;99.90;-4.60;102362;;;;561456;251;24106;-81
2022/03/01 02:39:36;;;;;;;15.07;8.13;;;-3.30;99.90;-4.60;102356;;;;559832;251;24110;-81
2022/03/01 02:42:08;;;;;;;13.77;7.80;;;-3.30;99.90;-4.60;102355;;;;561407;251;24142;-81
2022/03/01 02:44:33;;;;;;;13.10;8.03;;;-3.30;99.90;-4.60;102354;;;;559265;251;24216;-81
2022/03/01 02:47:01;;;;;;;17.73;8.67;;;-3.30;99.90;-4.60;102355;;;;561208;251;24183;-81
2022/03/01 02:49:29;;;;;;;13.60;8.37;;;-3.30;99.90;-4.60;102363;;;;560978;251;24126;-81
2022/03/01 02:51:58;;;;;;;13.87;8.67;;;-3.30;99.90;-4.60;102359;;;;559802;251;24128;-78
2022/03/01 02:54:26;;;;;;;16.13;7.90;;;-3.30;99.90;-4.70;102359;;;;561412;251;24114;-79
2022/03/01 02:56:59;;;;;;;14.77;7.83;;;-3.30;99.90;-4.70;102354;;;;559712;251;24138;-79
2022/03/01 02:59:24;;;;;;;11.63;8.13;;;-3.30;99.90;-4.60;102366;;;;556511;251;38577;-80
2022/03/01 03:01:52;;;;;;;8.73;5.00;;;-3.30;99.90;-4.60;102362;;;;559798;251;24115;-82
2022/03/01 03:04:19;;;;;;;11.57;7.27;;;-3.30;99.90;-4.60;102346;;;;561346;251;24108;-82
2022/03/01 03:06:47;;;;;;;14.27;8.50;;;-3.30;99.90;-4.60;102352;;;;559764;251;24150;-82
2022/03/01 03:09:15;;;;;;;13.50;8.43;;;-3.30;99.90;-4.60;102353;;;;562693;247;24173;-81
2022/03/01 03:11:46;;;;;;;12.50;8.23;;;-3.30;99.90;-4.50;102345;;;;560713;251;24129;-81
2022/03/01 03:14:11;;;;;;;12.67;7.80;;;-3.20;99.90;-4.50;102347;;;;562136;251;24109;-82
2022/03/01 03:16:42;;;;;;;14.77;8.47;;;-3.20;99.90;-4.50;102342;;;;560506;251;24151;-80
2022/03/01 03:19:07;;;;;;;10.10;6.93;;;-3.20;99.90;-4.40;102335;;;;570191;251;25165;-81
2022/03/01 03:21:35;;;;;;;12.33;8.37;;;-3.10;99.90;-4.40;102339;;;;562083;251;24128;-80
2022/03/01 03:24:03;;;;;;;12.07;7.80;;;-3.10;99.90;-4.40;102335;;;;566123;251;24118;-80
2022/03/01 03:26:31;;;;;;;10.40;7.50;;;-3.10;99.90;-4.40;102346;;;;560176;251;24102;-81
2022/03/01 03:28:59;;;;;;;13.23;7.97;;;-3.10;99.90;-4.40;102335;;;;561676;251;24152;-81
2022/03/01 03:31:27;;;;;;;11.53;8.03;;;-3.10;99.90;-4.40;102341;;;;561579;251;24127;-80
2022/03/01 03:33:56;;;;;;;9.70;7.70;;;-3.10;99.90;-4.40;102337;;;;561601;251;24172;-82
2022/03/01 03:36:24;;;;;;;13.43;7.63;;;-3.10;99.90;-4.40;102342;;;;561639;251;24159;-80
2022/03/01 03:38:52;;;;;;;11.67;7.60;;;-3.10;99.90;-4.40;102343;;;;561164;251;24136;-80
2022/03/01 03:41:20;;;;;;;10.97;8.03;;;-3.10;99.90;-4.40;102351;;;;561271;251;24115;-80
2022/03/01 03:43:49;;;;;;;12.47;8.50;;;-3.10;99.90;-4.30;102342;;;;561093;251;24162;-80
2022/03/01 03:46:17;;;;;;;14.30;8.70;;;-3.10;99.90;-4.30;102349;;;;559399;251;24120;-80
2022/03/01 03:48:45;;;;;;;11.53;7.83;;;-3.10;99.90;-4.30;102334;;;;560968;247;24163;-80
2022/03/01 03:51:13;;;;;;;11.17;7.80;;;-3.00;99.90;-4.30;102332;;;;561390;251;24215;-81
2022/03/01 03:53:43;;;;;;;11.00;8.00;;;-3.00;99.90;-4.30;102327;;;;561437;251;24099;-82
2022/03/01 03:56:08;;;;;;;12.70;7.67;;;-3.00;99.90;-4.30;102332;;;;559677;251;24112;-81
2022/03/01 03:58:36;;;;;;;10.80;8.43;;;-3.00;99.90;-4.30;102327;;;;559757;251;24116;-82
2022/03/01 04:01:07;;;;;;;11.10;7.67;;;-3.00;99.90;-4.30;102327;;;;565400;251;24125;-82
2022/03/01 04:03:32;;;;;;;14.10;8.77;;;-3.00;99.90;-4.30;102326;;;;559673;251;24123;-81
2022/03/01 04:06:00;;;;;;;12.20;9.10;;;-3.00;99.90;-4.40;102317;;;;561651;251;24179;-80
2022/03/01 04:08:28;;;;;;;14.03;9.07;;;-3.10;99.90;-4.40;102315;;;;561587;251;24134;-80
2022/03/01 04:11:00;;;;;;;13.47;7.83;;;-3.10;99.90;-4.40;102317;;;;561630;251;24251;-80
2022/03/01 04:13:30;;;;;;;15.63;8.93;;;-3.10;99.90;-4.40;102316;;;;560120;251;24108;-81
2022/03/01 04:15:55;;;;;;;13.87;8.93;;;-3.10;99.90;-4.40;102308;;;;561902;251;24141;-81
2022/03/01 04:18:23;;;;;;;15.43;9.30;;;-3.10;99.90;-4.40;102309;;;;561873;251;24118;-82
2022/03/01 04:20:50;;;;;;;13.83;9.47;;;-3.10;99.90;-4.40;102309;;;;567209;251;24098;-82
2022/03/01 04:23:18;;;;;;;15.10;9.33;;;-3.10;99.90;-4.40;102302;;;;562547;251;24106;-81
2022/03/01 04:25:46;;;;;;;13.70;9.07;;;-3.20;99.90;-4.50;102317;;;;560798;251;24159;-81
2022/03/01 04:28:14;;;;;;;15.30;9.07;;;-3.20;99.90;-4.50;102303;;;;566362;251;24110;-82
2022/03/01 04:30:46;;;;;;;14.57;9.80;;;-3.20;99.90;-4.50;102306;;;;565657;251;35449;-83
2022/03/01 04:33:11;;;;;;;8.73;5.47;;;-3.20;99.90;-4.50;102313;;;;570237;251;24118;-82
2022/03/01 04:35:40;;;;;;;13.97;9.23;;;-3.20;99.90;-4.50;102309;;;;562364;251;24159;-82
2022/03/01 04:38:11;;;;;;;18.30;9.37;;;-3.20;99.90;-4.50;102301;;;;565981;251;24167;-81
2022/03/01 04:40:36;;;;;;;14.50;9.33;;;-3.20;99.90;-4.50;102313;;;;559856;251;24159;-81
2022/03/01 04:43:06;;;;;;;13.87;8.30;;;-3.20;99.90;-4.50;102298;;;;559863;251;24176;-82
2022/03/01 04:45:32;;;;;;;14.80;9.13;;;-3.20;99.90;-4.50;102296;;;;561195;251;24127;-81
2022/03/01 04:48:00;;;;;;;11.83;8.77;;;-3.20;99.90;-4.50;102295;;;;559895;251;24355;-81
2022/03/01 04:50:31;;;;;;;12.63;8.43;;;-3.20;99.90;-4.50;102296;;;;559948;251;24147;-82
2022/03/01 04:52:58;;;;;;;13.30;9.63;;;-3.20;99.90;-4.50;102288;;;;561555;251;24152;-82
2022/03/01 04:55:23;;;;;;;14.53;9.17;;;-3.20;99.90;-4.60;102293;;;;559724;251;24174;-83
2022/03/01 04:57:51;;;;;;;15.17;9.70;;;-3.30;99.90;-4.70;102285;;;;561661;251;24169;-82
2022/03/01 05:00:21;;;;;;;17.13;10.03;;;-3.30;99.90;-4.70;102287;;;;565816;251;24134;-83
2022/03/01 05:02:47;;;;;;;16.97;9.70;;;-3.40;99.90;-4.70;102288;;;;560274;251;24149;-83
2022/03/01 05:05:18;;;;;;;20.67;9.80;;;-3.40;99.90;-4.70;102272;;;;559990;251;24119;-82
2022/03/01 05:07:49;;;;;;;15.40;9.57;;;-3.40;99.90;-4.70;102278;;;;562033;251;24128;-83
2022/03/01 05:10:17;;;;;;;13.87;9.27;;;-3.40;99.90;-4.70;102280;;;;565392;251;24160;-84
2022/03/01 05:12:45;;;;;;;16.70;8.70;;;-3.40;99.90;-4.70;102282;;;;559710;251;24186;-84
2022/03/01 05:15:12;;;;;;;11.13;8.40;;;-3.40;99.90;-4.70;102294;;;;558340;251;24158;-82
2022/03/01 05:17:43;;;;;;;13.77;8.53;;;-3.40;99.90;-4.70;102282;;;;558821;251;24116;-83
2022/03/01 05:20:12;;;;;;;13.60;9.00;;;-3.40;99.90;-4.70;102276;;;;561774;251;24115;-83
2022/03/01 05:22:40;;;;;;;17.00;9.23;;;-3.40;99.90;-4.80;102290;;;;561615;251;24143;-85
2022/03/01 05:25:12;;;;;;;14.30;9.40;;;-3.50;99.90;-4.80;102279;;;;561685;251;24124;-81
2022/03/01 05:27:42;;;;;;;20.27;10.50;;;-3.50;99.90;-4.80;102280;;;;560753;251;24130;-83
2022/03/01 05:30:07;;;;;;;15.77;9.77;;;-3.50;99.90;-4.80;102277;;;;559775;251;24226;-84
2022/03/01 05:32:35;;;;;;;19.23;10.23;;;-3.50;99.90;-4.80;102278;;;;560681;251;24173;-84
2022/03/01 05:35:06;;;;;;;14.53;11.00;;;-3.50;99.90;-4.80;102278;;;;561209;251;24119;-84
2022/03/01 05:37:33;;;;;;;20.63;10.77;;;-3.50;99.90;-4.80;102284;;;;562500;251;24151;-84
2022/03/01 05:40:01;;;;;;;15.10;10.50;;;-3.50;99.90;-4.80;102282;;;;562970;251;24107;-83
2022/03/01 05:42:29;;;;;;;17.33;11.10;;;-3.50;99.90;-4.80;102290;;;;562899;251;24157;-84
2022/03/01 05:44:59;;;;;;;19.30;11.27;;;-3.50;99.90;-4.80;102288;;;;556445;251;35448;-85
2022/03/01 05:47:29;;;;;;;17.85;9.63;;;-3.50;99.90;-4.70;102284;;;;557815;251;35430;-82
2022/03/01 05:49:57;;;;;;;14.00;6.20;;;-3.40;99.90;-4.70;102287;;;;570460;248;24189;-83
2022/03/01 05:52:22;;;;;;;10.60;5.60;;;-3.40;99.90;-4.60;102294;;;;561850;251;24165;-83
2022/03/01 05:54:55;;;;;;;12.93;8.50;;;-3.30;99.90;-4.50;102295;;;;560693;251;24160;-84
2022/03/01 05:57:23;;;;;;;15.77;10.13;;;-3.20;99.90;-4.40;102298;;;;561347;251;24157;-83
2022/03/01 05:59:48;;;;;;;18.60;9.97;;;-3.20;99.90;-4.40;102295;;;;561194;251;24129;-83
2022/03/01 06:02:16;;;;;;;16.00;10.00;;;-3.10;99.90;-4.30;102299;;;;561457;251;24114;-83
2022/03/01 06:04:47;;;;;;;15.53;10.17;;;-2.90;99.90;-4.20;102294;;;;561124;251;24111;-83
2022/03/01 06:07:13;;;;;;;14.40;9.80;;;-2.80;99.90;-4.10;102286;;;;559377;251;24128;-83
2022/03/01 06:09:42;;;;;;;16.10;10.43;;;-2.80;99.90;-4.00;102300;;;;560883;251;24132;-81
2022/03/01 06:12:10;;;;;;;17.73;9.63;;;-2.70;99.90;-3.90;102300;;;;560992;251;24161;-81
2022/03/01 06:14:39;;;;;;;25.87;9.93;;;-2.60;99.90;-3.80;102306;;;;561160;251;24120;-80
2022/03/01 06:17:08;;;;;;;17.43;9.53;;;-2.50;99.90;-3.80;102302;;;;560799;251;24168;-81
2022/03/01 06:19:36;;;;;;;18.93;10.00;;;-2.40;99.90;-3.70;102310;;;;561041;251;24127;-82
2022/03/01 06:22:09;;;;;;;14.63;8.90;;;-2.40;99.90;-3.60;102308;;;;560945;251;25265;-82
2022/03/01 06:24:34;;;;;;;15.00;9.60;;;-2.30;99.90;-3.50;102316;;;;558742;251;24115;-82
2022/03/01 06:27:02;;;;;;;16.23;9.40;;;-2.30;99.90;-3.40;102309;;;;559443;251;24115;-81
2022/03/01 06:29:30;;;;;;;14.93;10.13;;;-2.20;99.90;-3.30;102316;;;;559567;251;24254;-82
2022/03/01 06:31:58;;;;;;;16.40;9.27;;;-2.00;99.90;-3.30;102321;;;;559400;251;24161;-81
2022/03/01 06:34:30;;;;;;;17.73;9.93;;;-2.10;99.90;-3.10;102322;;;;560906;251;24120;-81
2022/03/01 06:36:54;;;;;;;16.00;9.07;;;-1.90;99.90;-3.00;102316;;;;564963;251;24129;-81
2022/03/01 06:39:22;;;;;;;18.20;9.83;;;-1.80;99.90;-2.90;102324;;;;565592;251;24101;-82
2022/03/01 06:41:50;;;;;;;16.70;9.47;;;-1.80;99.90;-2.80;102329;;;;561462;249;24126;-82
2022/03/01 06:44:21;;;;;;;21.00;9.07;;;-1.60;99.90;-2.70;102324;;;;562760;251;24157;-82
2022/03/01 06:46:46;;;;;;;18.23;7.87;;;-1.50;99.90;-2.60;102325;;;;560492;251;24098;-83
2022/03/01 06:49:14;;;;;;;11.67;7.73;;;-1.40;99.90;-2.50;102315;;;;562211;251;24130;-83
2022/03/01 06:51:43;;;;;;;14.63;7.27;;;-1.20;99.90;-2.30;102319;;;;560087;251;24123;-82
2022/03/01 06:54:11;;;;;;;13.43;7.53;;;-1.10;99.90;-2.20;102321;;;;561648;251;25198;-83
2022/03/01 06:56:40;;;;;;;13.53;5.73;;;-0.80;99.90;-1.90;102324;;;;561595;251;24098;-80
2022/03/01 06:59:09;;;;;;;11.23;5.07;;;0.20;99.90;-0.60;102326;;;;561609;251;24107;-80
2022/03/01 07:01:36;;;;;;;15.97;5.70;;;0.20;99.90;1.90;102334;;;;561370;251;24112;-81
2022/03/01 07:04:04;;;;;;;18.30;5.40;;;2.30;99.90;4.80;102335;;;;570090;251;24225;-80
2022/03/01 07:06:36;;;;;;;7.90;5.30;;;4.80;99.90;7.20;102345;;;;569902;251;24130;-80
2022/03/01 07:09:04;;;;;;;12.07;6.43;;;7.10;99.90;9.10;102352;;;;569355;251;24165;-81
2022/03/01 07:11:28;;;;;;;11.40;7.57;;;9.20;89.80;10.80;102349;;;;569740;251;24173;-81
2022/03/01 07:13:56;;;;;;;13.23;6.50;;;10.90;76.40;12.10;102348;;;;559661;251;24111;-82
2022/03/01 07:16:24;;;;;;;14.20;8.80;;;12.40;67.00;13.40;102350;;;;561399;251;24136;-80
2022/03/01 07:18:54;;;;;;;11.03;6.50;;;13.70;59.30;14.60;102358;;;;561588;251;24134;-81
2022/03/01 07:21:20;;;;;;;12.37;7.30;;;14.80;55.00;15.40;102362;;;;559426;251;24133;-82
2022/03/01 07:23:48;;;;;;;11.63;7.53;;;15.80;52.40;16.30;102356;;;;559926;251;24107;-81
2022/03/01 07:26:16;;;;;;;13.77;6.77;;;16.60;49.60;16.70;102365;;;;561081;251;24117;-81
2022/03/01 07:28:43;;;;;;;11.73;7.20;;;17.20;48.20;17.50;102364;;;;559571;251;24214;-81
2022/03/01 07:31:11;;;;;;;11.37;7.10;;;17.90;47.40;18.20;102359;;;;561139;251;24143;-81
2022/03/01 07:33:41;;;;;;;14.70;7.93;;;18.60;45.40;18.90;102364;;;;561143;251;24120;-80
2022/03/01 07:36:10;;;;;;;14.73;8.20;;;19.40;43.20;19.30;102369;;;;561376;251;24192;-82
2022/03/01 07:38:35;;;;;;;12.33;8.03;;;19.80;41.90;19.70;102372;;;;561229;251;24163;-81
2022/03/01 07:41:03;;;;;;;12.90;7.87;;;20.30;41.50;20.20;102372;;;;561552;251;23151;-80
2022/03/01 07:43:31;;;;;;;12.93;8.57;;;20.80;40.60;20.90;102375;;;;561474;251;23183;-80
2022/03/01 07:46:02;;;;;;;13.67;8.20;;;21.30;39.60;21.20;102377;;;;561414;251;24169;-80
2022/03/01 07:48:27;;;;;;;15.03;9.30;;;21.80;38.50;21.70;102374;;;;559584;251;24148;-80
2022/03/01 07:50:55;;;;;;;15.73;8.80;;;22.20;37.50;21.40;102390;;;;560994;251;23154;-81
2022/03/01 07:53:23;;;;;;;15.30;10.37;;;22.10;37.40;21.70;102385;;;;559332;251;24187;-80
2022/03/01 07:55:51;;;;;;;14.57;8.27;;;22.20;36.70;21.80;102375;;;;562476;251;24129;-80
2022/03/01 07:58:19;;;;;;;21.03;8.80;;;22.40;36.20;22.10;102378;;;;560638;251;23127;-81
2022/03/01 08:00:47;;;;;;;15.03;7.63;;;22.60;36.30;22.50;102384;;;;560366;251;24111;-82
2022/03/01 08:03:15;;;;;;;14.03;8.00;;;23.00;36.10;23.00;102383;;;;561777;251;24226;-81
2022/03/01 08:05:44;;;;;;;11.80;7.97;;;23.60;35.60;23.50;102375;;;;561576;251;24167;-82
2022/03/01 08:08:11;;;;;;;9.77;6.60;;;24.10;35.00;23.40;102383;;;;561654;251;24107;-81
2022/03/01 08:10:38;;;;;;;10.27;6.27;;;24.20;34.30;22.90;102389;;;;560226;251;24170;-81
2022/03/01 08:13:06;;;;;;;10.67;7.30;;;24.00;34.40;23.00;102382;;;;561684;251;24167;-82
2022/03/01 08:15:38;;;;;;;11.17;7.33;;;23.90;34.10;23.30;102371;;;;559636;251;24127;-82
2022/03/01 08:18:02;;;;;;;11.33;6.43;;;24.00;33.90;23.80;102381;;;;560058;251;24166;-82
2022/03/01 08:20:31;;;;;;;11.67;6.93;;;24.40;33.70;24.20;102382;;;;565589;251;24137;-81
2022/03/01 08:23:02;;;;;;;8.00;5.60;;;24.90;33.50;24.90;102376;;;;567173;251;24127;-81
2022/03/01 08:25:30;;;;;;;10.93;6.30;;;25.50;32.60;25.30;102372;;;;560911;251;23149;-80
2022/03/01 08:27:58;;;;;;;8.30;6.63;;;26.00;32.30;25.50;102382;;;;561067;251;24171;-80
2022/03/01 08:30:22;;;;;;;11.47;6.23;;;26.40;32.10;25.90;102383;;;;560858;251;23124;-81
2022/03/01 08:32:54;;;;;;;8.73;6.10;;;27.20;31.20;26.40;102374;;;;561169;251;23212;-83
2022/03/01 08:35:18;;;;;;;8.63;6.50;;;27.10;31.10;26.60;102377;;;;559181;251;23124;-82
2022/03/01 08:37:49;;;;;;;9.80;6.47;;;27.50;30.80;27.10;102383;;;;559672;251;24190;-82
2022/03/01 08:40:19;;;;;;;7.47;6.00;;;27.90;30.30;27.00;102387;;;;559632;251;23129;-81
2022/03/01 08:42:46;;;;;;;8.70;5.70;;;27.90;30.10;26.90;102385;;;;561095;251;24109;-80
2022/03/01 08:45:10;;;;;;;7.30;5.80;;;27.80;29.70;26.80;102382;;;;561348;251;23116;-80
2022/03/01 08:47:42;;;;;;;6.33;5.63;;;27.70;29.60;26.80;102384;;;;561869;251;24131;-80
2022/03/01 08:50:07;;;;;;;8.67;5.97;;;27.70;29.80;26.70;102389;;;;561214;251;23190;-80
2022/03/01 08:52:35;;;;;;;7.47;5.67;;;27.90;29.70;26.90;102386;;;;560289;251;23168;-81
2022/03/01 08:55:07;;;;;;;6.80;5.70;;;27.80;30.10;27.00;102390;;;;560191;251;23186;-82
2022/03/01 08:57:32;;;;;;;5.37;4.97;;;28.00;29.20;27.00;102386;;;;561824;251;24149;-82
2022/03/01 09:00:00;;;;;;;7.30;5.40;;;27.80;29.20;26.80;102383;;;;561740;251;23183;-83
2022/03/01 09:02:28;;;;;;;7.87;5.10;;;27.80;29.20;26.80;102375;;;;561456;251;23162;-81
2022/03/01 09:04:56;;;;;;;5.33;4.57;;;27.90;29.20;26.70;102381;;;;561642;251;24128;-80
2022/03/01 09:07:25;;;;;;;6.90;5.17;;;27.70;29.30;26.60;102382;;;;561234;251;23170;-81
2022/03/01 09:09:55;;;;;;;7.00;5.37;;;27.70;29.20;26.70;102383;;;;566629;251;23135;-80
2022/03/01 09:12:22;;;;;;;6.47;4.73;;;27.80;29.00;26.60;102384;;;;561984;251;23163;-79
2022/03/01 09:14:53;;;;;;;8.43;5.13;;;28.00;29.00;26.80;102383;;;;562138;251;23105;-82
2022/03/01 09:17:21;;;;;;;8.33;5.93;;;28.00;28.90;26.70;102381;;;;561575;251;23183;-81
2022/03/01 09:19:46;;;;;;;6.27;5.53;;;28.00;28.90;27.10;102384;;;;559595;251;23144;-80
2022/03/01 09:22:14;;;;;;;6.70;4.80;;;28.30;28.70;26.90;102374;;;;561715;251;24145;-81
2022/03/01 09:24:46;;;;;;;5.97;4.97;;;28.30;28.50;26.90;102372;;;;559706;251;23120;-81
2022/03/01 09:27:14;;;;;;;6.70;5.00;;;28.30;28.70;27.00;102365;;;;561187;251;23133;-82
2022/03/01 09:29:40;;;;;;;6.17;5.00;;;28.40;28.60;27.00;102367;;;;559805;251;23168;-82
2022/03/01 09:32:07;;;;;;;5.87;5.10;;;28.10;28.70;26.60;102362;;;;562114;251;23140;-82
2022/03/01 09:34:35;;;;;;;6.63;5.17;;;28.20;28.70;26.30;102369;;;;561800;251;23254;-83
2022/03/01 09:37:07;;;;;;;6.03;5.17;;;27.80;28.80;25.30;102355;;;;561509;251;23141;-81
2022/03/01 09:39:31;;;;;;;6.63;5.83;;;27.10;28.90;23.50;102356;;;;561593;251;23129;-79
2022/03/01 09:41:58;;;;;;;5.93;5.07;;;25.80;29.40;21.90;102354;;;;561739;251;23164;-81
2022/03/01 09:44:27;;;;;;;6.53;4.93;;;23.00;31.50;20.80;102349;;;;561725;251;23123;-82
2022/03/01 09:46:55;;;;;;;7.23;5.40;;;22.90;31.40;20.00;102344;;;;570062;251;24140;-81
2022/03/01 09:49:23;;;;;;;10.20;5.03;;;21.90;32.50;19.00;102336;;;;561384;251;24143;-81
2022/03/01 09:51:52;;;;;;;9.57;5.13;;;20.00;35.30;18.30;102340;;;;565618;251;23115;-80
2022/03/01 09:54:20;;;;;;;8.80;5.10;;;20.00;34.60;17.60;102338;;;;569997;249;24110;-80
2022/03/01 09:56:48;;;;;;;7.70;4.90;;;19.20;35.90;16.90;102332;;;;559633;251;23175;-81
2022/03/01 09:59:16;;;;;;;6.87;4.50;;;18.50;36.30;16.00;102333;;;;565263;251;24153;-80
2022/03/01 10:01:50;;;;;;;6.50;5.10;;;17.70;37.00;15.60;102327;;;;567515;251;24117;-81
2022/03/01 10:04:21;;;;;;;7.17;4.73;;;17.20;38.00;15.50;102324;;;;565467;251;24188;-81
2022/03/01 10:06:49;;;;;;;6.30;5.03;;;17.10;38.40;16.10;102324;;;;561303;251;24209;-82
2022/03/01 10:09:13;;;;;;;7.87;5.07;;;17.60;38.60;16.80;102330;;;;561881;251;24262;-81
2022/03/01 10:11:44;;;;;;;7.33;5.47;;;18.30;37.60;17.30;102323;;;;561612;251;24112;-82
2022/03/01 10:14:09;;;;;;;5.53;4.77;;;18.80;37.20;17.60;102326;;;;560056;251;24166;-82
2022/03/01 10:16:40;;;;;;;6.10;5.10;;;19.20;36.70;17.60;102315;;;;560392;249;24111;-80
2022/03/01 10:19:17;;;;;;;7.60;5.07;;;19.30;36.20;17.50;102318;;;;562123;251;24111;-82
2022/03/01 10:21:59;;;;;;;8.70;5.57;;;19.30;36.40;17.60;102309;;;;562574;251;24116;-81
2022/03/01 10:24:27;;;;;;;8.87;5.53;;;19.40;36.20;17.70;102307;;;;561102;251;23132;-82
2022/03/01 10:27:01;;;;;;;9.83;5.10;;;19.50;36.40;17.70;102300;;;;562200;251;24301;-80
2022/03/01 10:29:26;;;;;;;7.43;5.10;;;19.50;36.30;17.30;102298;;;;565729;251;24152;-81
2022/03/01 10:31:54;;;;;;;8.40;5.40;;;19.30;36.30;17.10;102298;;;;559518;251;23139;-82
2022/03/01 10:34:22;;;;;;;9.73;5.53;;;19.20;36.50;17.10;102294;;;;562025;251;24144;-82
2022/03/01 10:36:50;;;;;;;6.07;5.17;;;19.10;36.80;16.90;102294;;;;562097;251;24187;-82
2022/03/01 10:39:19;;;;;;;6.67;5.10;;;19.00;37.00;16.20;102283;;;;570193;251;24112;-81
2022/03/01 10:41:49;;;;;;;9.70;5.37;;;18.40;37.10;15.00;102269;;;;562035;251;24223;-80
2022/03/01 10:44:14;;;;;;;11.43;5.60;;;17.30;38.30;13.80;102272;;;;570396;251;24166;-80
2022/03/01 10:46:46;;;;;;;8.03;5.17;;;16.10;39.70;13.00;102266;;;;561092;251;24114;-80
2022/03/01 10:49:12;;;;;;;11.47;4.53;;;15.00;41.10;12.10;102268;;;;560320;251;24175;-79
2022/03/01 10:52:01;;;;;;;9.27;5.37;;;14.00;42.30;11.40;102255;;;;562113;251;24194;-81
2022/03/01 10:54:39;;;;;;;8.37;4.60;;;12.30;45.30;10.70;102250;;;;569908;251;24202;-81
2022/03/01 10:57:07;;;;;;;15.47;5.10;;;11.50;47.30;10.20;102247;;;;570075;251;24114;-83
2022/03/01 10:59:39;;;;;;;5.87;4.37;;;11.50;46.70;9.60;102245;;;;565509;251;24130;-83
2022/03/01 11:02:06;;;;;;;8.40;4.73;;;10.90;47.70;9.10;102236;;;;569921;251;24118;-81
2022/03/01 11:04:31;;;;;;;10.50;4.40;;;10.40;48.60;8.70;102235;;;;570138;251;24132;-83
2022/03/01 11:06:59;;;;;;;7.33;4.23;;;9.90;49.40;8.20;102223;;;;570066;251;24136;-82
2022/03/01 11:09:30;;;;;;;10.87;4.40;;;9.40;50.30;7.90;102227;;;;569933;251;24155;-82